createdAt,value
2018-10-11T00:00:57.608Z,13.23
2018-10-11T00:03:25.767Z,12.43
2018-10-11T00:05:53.911Z,12.50
2018-10-11T00:08:22.080Z,11.80
2018-10-11T00:10:50.225Z,13.37
2018-10-11T00:13:18.412Z,12.83
2018-10-11T00:15:46.620Z,12.53
2018-10-11T00:18:14.774Z,12.00
2018-10-11T00:20:42.960Z,11.87
2018-10-11T00:23:11.163Z,11.73
2018-10-11T00:25:39.347Z,10.87
2018-10-11T00:28:07.516Z,12.17
2018-10-11T00:30:35.822Z,11.90
2018-10-11T00:33:03.931Z,12.97
2018-10-11T00:35:32.094Z,12.70
2018-10-11T00:38:00.515Z,11.73
2018-10-11T00:40:28.681Z,11.73
2018-10-11T00:42:56.859Z,11.60
2018-10-11T00:45:25.024Z,12.63
2018-10-11T00:47:53.305Z,12.10
2018-10-11T00:50:21.457Z,11.87
2018-10-11T00:52:49.639Z,10.77
2018-10-11T00:55:17.807Z,11.80
2018-10-11T00:57:45.963Z,11.43
2018-10-11T01:00:14.208Z,12.57
2018-10-11T01:02:42.393Z,12.60
2018-10-11T01:05:10.542Z,11.60
2018-10-11T01:07:38.830Z,10.90
2018-10-11T01:10:07.119Z,12.13
2018-10-11T01:12:35.245Z,11.70
2018-10-11T01:15:03.503Z,11.80
2018-10-11T01:17:31.663Z,11.53
2018-10-11T01:19:59.823Z,11.33
2018-10-11T01:22:28.027Z,11.33
2018-10-11T01:24:56.221Z,11.53
2018-10-11T01:27:24.423Z,11.70
2018-10-11T01:29:52.628Z,11.57
2018-10-11T01:32:20.799Z,12.03
2018-10-11T01:34:48.967Z,12.80
2018-10-11T01:37:17.191Z,12.70
2018-10-11T01:39:45.427Z,13.23
2018-10-11T01:42:13.568Z,12.27
2018-10-11T01:44:41.739Z,13.30
2018-10-11T01:47:09.907Z,11.87
2018-10-11T01:49:38.143Z,12.77
2018-10-11T01:52:06.354Z,10.97
2018-10-11T01:54:34.521Z,13.07
2018-10-11T01:57:02.724Z,12.83
2018-10-11T01:59:31.037Z,11.77
2018-10-11T02:01:59.241Z,11.30
2018-10-11T02:04:27.587Z,12.83
2018-10-11T02:06:55.843Z,12.07
2018-10-11T02:09:24.281Z,11.40
2018-10-11T02:11:52.482Z,12.27
2018-10-11T02:14:20.695Z,12.30
2018-10-11T02:16:48.902Z,12.30
2018-10-11T02:19:17.062Z,12.43
2018-10-11T02:21:45.228Z,11.73
2018-10-11T02:24:13.423Z,11.30
2018-10-11T02:26:41.609Z,12.23
2018-10-11T02:29:10.198Z,11.47
2018-10-11T02:31:38.365Z,13.20
2018-10-11T02:34:06.531Z,12.50
2018-10-11T02:36:34.727Z,12.10
2018-10-11T02:39:02.947Z,12.80
2018-10-11T02:41:31.132Z,12.17
2018-10-11T02:43:59.283Z,14.57
2018-10-11T02:46:27.507Z,13.97
2018-10-11T02:48:55.726Z,15.00
2018-10-11T02:51:23.978Z,14.57
2018-10-11T02:53:52.407Z,15.83
2018-10-11T02:56:22.063Z,13.70
2018-10-11T02:59:01.563Z,13.93
2018-10-11T03:01:29.811Z,12.13
2018-10-11T03:04:01.735Z,13.20
2018-10-11T03:06:29.965Z,13.47
2018-10-11T03:08:58.159Z,13.50
2018-10-11T03:11:26.356Z,13.37
2018-10-11T03:13:54.507Z,12.67
2018-10-11T03:16:22.659Z,13.10
2018-10-11T03:18:50.828Z,12.87
2018-10-11T03:21:19.570Z,12.97
2018-10-11T03:23:47.750Z,13.67
2018-10-11T03:26:15.938Z,13.20
2018-10-11T03:28:44.089Z,12.97
2018-10-11T03:31:12.250Z,13.00
2018-10-11T03:33:40.431Z,14.27
2018-10-11T03:36:08.683Z,13.60
2018-10-11T03:38:36.851Z,15.07
2018-10-11T03:41:05.023Z,15.77
2018-10-11T03:43:33.187Z,17.27
2018-10-11T03:46:01.383Z,17.27
2018-10-11T03:48:29.541Z,16.83
2018-10-11T03:50:57.717Z,15.50
2018-10-11T03:53:25.912Z,17.13
2018-10-11T03:55:54.143Z,14.10
2018-10-11T03:58:22.355Z,14.20
2018-10-11T04:00:50.551Z,13.33
2018-10-11T04:03:18.741Z,15.20
2018-10-11T04:05:46.914Z,14.27
2018-10-11T04:08:15.090Z,13.30
2018-10-11T04:10:43.297Z,14.30
2018-10-11T04:13:11.723Z,12.80
2018-10-11T04:15:39.954Z,13.70
2018-10-11T04:18:08.116Z,12.87
2018-10-11T04:20:36.284Z,14.50
2018-10-11T04:23:04.676Z,13.57
2018-10-11T04:25:32.852Z,15.03
2018-10-11T04:28:01.026Z,13.53
2018-10-11T04:30:29.222Z,14.17
2018-10-11T04:32:57.987Z,14.83
2018-10-11T04:35:26.556Z,13.37
2018-10-11T04:37:54.772Z,14.90
2018-10-11T04:40:22.940Z,14.47
2018-10-11T04:42:51.167Z,14.73
2018-10-11T04:45:19.293Z,15.20
2018-10-11T04:47:47.635Z,14.33
2018-10-11T04:50:15.823Z,14.43
2018-10-11T04:52:44.216Z,15.50
2018-10-11T04:55:12.396Z,15.37
2018-10-11T04:57:40.585Z,14.77
2018-10-11T05:00:15.422Z,15.53
2018-10-11T05:02:43.612Z,13.87
2018-10-11T05:05:11.797Z,14.83
2018-10-11T05:07:39.966Z,14.90
2018-10-11T05:10:08.174Z,15.00
2018-10-11T05:12:36.504Z,16.53
2018-10-11T05:15:04.860Z,14.67
2018-10-11T05:17:33.652Z,15.30
2018-10-11T05:20:01.899Z,15.23
2018-10-11T05:22:30.058Z,17.10
2018-10-11T05:24:58.331Z,17.23
2018-10-11T05:27:26.575Z,15.77
2018-10-11T05:29:54.747Z,16.57
2018-10-11T05:32:22.991Z,16.57
2018-10-11T05:34:51.204Z,17.23
2018-10-11T05:37:19.438Z,17.53
2018-10-11T05:39:47.694Z,17.37
2018-10-11T05:42:22.509Z,17.60
2018-10-11T05:44:51.047Z,16.43
2018-10-11T05:47:19.245Z,16.87
2018-10-11T05:49:47.470Z,15.77
2018-10-11T05:52:15.755Z,16.37
2018-10-11T05:54:44.092Z,17.03
2018-10-11T05:57:12.268Z,16.87
2018-10-11T05:59:40.440Z,16.57
2018-10-11T06:02:08.811Z,15.73
2018-10-11T06:04:37.300Z,17.40
2018-10-11T06:07:05.717Z,16.90
2018-10-11T06:09:33.896Z,18.23
2018-10-11T06:12:02.159Z,16.57
2018-10-11T06:14:30.227Z,23.57
2018-10-11T06:16:58.387Z,22.30
2018-10-11T06:19:26.567Z,23.87
2018-10-11T06:21:54.726Z,21.13
2018-10-11T06:24:22.887Z,17.20
2018-10-11T06:26:51.072Z,17.50
2018-10-11T06:29:25.827Z,15.60
2018-10-11T06:31:54.026Z,17.67
2018-10-11T06:34:22.208Z,17.60
2018-10-11T06:36:50.381Z,17.60
2018-10-11T06:39:18.575Z,16.93
2018-10-11T06:41:46.761Z,19.37
2018-10-11T06:44:14.915Z,20.30
2018-10-11T06:46:43.088Z,23.20
2018-10-11T06:49:11.258Z,20.63
2018-10-11T06:51:39.431Z,19.87
2018-10-11T06:54:07.615Z,19.10
2018-10-11T06:56:35.791Z,20.40
2018-10-11T06:59:03.955Z,18.27
2018-10-11T07:01:32.145Z,18.90
2018-10-11T07:04:00.300Z,20.43
2018-10-11T07:06:28.831Z,21.43
2018-10-11T07:08:56.971Z,20.93
2018-10-11T07:11:25.129Z,20.30
2018-10-11T07:13:53.297Z,19.77
2018-10-11T07:16:21.463Z,20.53
2018-10-11T07:18:49.838Z,19.03
2018-10-11T07:21:17.999Z,19.73
2018-10-11T07:23:46.159Z,19.43
2018-10-11T07:26:14.348Z,18.93
2018-10-11T07:28:42.528Z,17.97
2018-10-11T07:31:10.678Z,18.87
2018-10-11T07:33:38.842Z,18.70
2018-10-11T07:36:07.016Z,20.53
2018-10-11T07:38:35.179Z,20.47
2018-10-11T07:41:03.398Z,20.00
2018-10-11T07:43:31.645Z,20.00
2018-10-11T07:45:59.790Z,18.80
2018-10-11T07:48:27.964Z,19.03
2018-10-11T07:50:56.146Z,19.17
2018-10-11T07:53:24.319Z,19.23
2018-10-11T07:55:52.470Z,18.50
2018-10-11T07:58:20.627Z,17.30
2018-10-11T08:00:48.883Z,18.50
2018-10-11T08:03:17.067Z,19.17
2018-10-11T08:05:45.219Z,17.73
2018-10-11T08:08:13.423Z,20.77
2018-10-11T08:10:41.879Z,20.47
2018-10-11T08:13:09.719Z,20.93
2018-10-11T08:15:37.898Z,21.07
2018-10-11T08:18:06.576Z,20.60
2018-10-11T08:20:34.959Z,21.77
2018-10-11T08:23:03.023Z,17.47
2018-10-11T08:25:31.618Z,19.20
2018-10-11T08:27:59.351Z,19.60
2018-10-11T08:30:27.591Z,19.90
2018-10-11T08:32:55.792Z,19.77
2018-10-11T08:35:23.909Z,20.37
2018-10-11T08:37:52.242Z,18.83
2018-10-11T08:40:20.668Z,19.37
2018-10-11T08:42:48.440Z,17.10
2018-10-11T08:45:16.600Z,17.60
2018-10-11T08:47:44.769Z,17.30
2018-10-11T08:50:12.998Z,17.17
2018-10-11T08:52:41.121Z,16.40
2018-10-11T08:55:09.289Z,16.37
2018-10-11T08:57:37.457Z,15.67
2018-10-11T09:00:06.636Z,16.60
2018-10-11T09:02:34.832Z,16.50
2018-10-11T09:05:03.041Z,15.73
2018-10-11T09:07:31.169Z,16.47
2018-10-11T09:09:59.382Z,17.20
2018-10-11T09:12:27.542Z,16.63
2018-10-11T09:14:55.711Z,17.00
2018-10-11T09:17:23.936Z,17.30
2018-10-11T09:19:52.047Z,15.87
2018-10-11T09:22:20.211Z,17.57
2018-10-11T09:24:48.538Z,16.03
2018-10-11T09:27:16.704Z,14.73
2018-10-11T09:29:44.876Z,16.53
2018-10-11T09:32:13.018Z,16.23
2018-10-11T09:34:41.190Z,16.47
2018-10-11T09:37:09.336Z,15.93
2018-10-11T09:39:37.538Z,18.00
2018-10-11T09:42:05.844Z,15.53
2018-10-11T09:44:33.990Z,16.87
2018-10-11T09:47:02.144Z,16.63
2018-10-11T09:49:30.327Z,14.37
2018-10-11T09:51:58.521Z,15.87
2018-10-11T09:54:26.808Z,14.87
2018-10-11T09:57:15.248Z,14.57
2018-10-11T09:59:43.475Z,15.13
2018-10-11T10:02:12.524Z,14.70
2018-10-11T10:04:45.103Z,14.37
2018-10-11T10:07:13.482Z,14.27
2018-10-11T10:09:42.498Z,13.83
2018-10-11T10:12:11.244Z,13.80
2018-10-11T10:14:40.033Z,14.70
2018-10-11T10:17:08.251Z,13.43
2018-10-11T10:19:36.427Z,15.23
2018-10-11T10:22:04.991Z,14.27
2018-10-11T10:24:33.563Z,13.23
2018-10-11T10:27:01.773Z,12.87
2018-10-11T10:29:29.904Z,12.73
2018-10-11T10:31:58.579Z,11.33
2018-10-11T10:34:26.992Z,11.80
2018-10-11T10:36:55.175Z,11.53
2018-10-11T10:39:23.822Z,12.43
2018-10-11T10:41:51.975Z,12.13
2018-10-11T10:44:20.170Z,13.23
2018-10-11T10:46:48.433Z,12.47
2018-10-11T10:49:16.571Z,12.10
2018-10-11T10:51:44.727Z,11.23
2018-10-11T10:54:18.285Z,11.40
2018-10-11T10:56:46.374Z,11.30
2018-10-11T10:59:14.554Z,10.40
2018-10-11T11:01:42.732Z,11.17
2018-10-11T11:04:10.888Z,11.50
2018-10-11T11:06:39.072Z,10.87
2018-10-11T11:09:09.329Z,10.33
2018-10-11T11:11:37.751Z,10.77
2018-10-11T11:14:05.951Z,10.33
2018-10-11T11:16:34.107Z,9.37
2018-10-11T11:19:02.340Z,10.00
2018-10-11T11:21:30.476Z,9.90
2018-10-11T11:23:58.672Z,10.20
2018-10-11T11:26:26.928Z,9.93
2018-10-11T11:28:55.140Z,10.27
2018-10-11T11:31:23.303Z,12.13
2018-10-11T11:33:51.511Z,12.00
2018-10-11T11:36:20.307Z,11.10
2018-10-11T11:38:48.504Z,12.00
2018-10-11T11:41:17.189Z,12.57
2018-10-11T11:43:45.363Z,9.87
2018-10-11T11:46:13.531Z,10.53
2018-10-11T11:48:41.810Z,9.37
2018-10-11T11:51:11.190Z,10.27
2018-10-11T11:53:40.310Z,11.43
2018-10-11T11:56:08.571Z,10.50
2018-10-11T11:58:37.045Z,8.93
2018-10-11T12:01:05.214Z,7.43
2018-10-11T12:03:33.379Z,6.90
2018-10-11T12:06:01.668Z,7.53
2018-10-11T12:08:32.504Z,7.07
2018-10-11T12:11:00.788Z,7.63
2018-10-11T12:13:29.022Z,6.87
2018-10-11T12:15:57.218Z,7.30
2018-10-11T12:18:25.451Z,7.07
2018-10-11T12:20:53.715Z,7.57
2018-10-11T12:23:22.073Z,8.53
2018-10-11T12:25:50.322Z,8.50
2018-10-11T12:28:19.185Z,8.20
2018-10-11T12:30:47.487Z,9.00
2018-10-11T12:33:15.752Z,7.53
2018-10-11T12:35:43.952Z,7.40
2018-10-11T12:38:12.368Z,6.83
2018-10-11T12:40:40.771Z,6.73
2018-10-11T12:43:09.507Z,6.73
2018-10-11T12:45:38.073Z,7.30
2018-10-11T12:48:05.974Z,7.43
2018-10-11T12:50:34.418Z,10.07
2018-10-11T12:53:02.815Z,10.83
2018-10-11T12:55:31.016Z,8.23
2018-10-11T12:57:59.211Z,8.33
2018-10-11T13:00:27.397Z,7.93
2018-10-11T13:02:55.792Z,8.40
2018-10-11T13:05:23.979Z,7.97
2018-10-11T13:07:52.241Z,6.93
2018-10-11T13:10:20.465Z,6.43
2018-10-11T13:12:48.814Z,7.37
2018-10-11T13:15:17.113Z,6.93
2018-10-11T13:17:45.295Z,6.80
2018-10-11T13:20:13.456Z,7.27
2018-10-11T13:22:41.610Z,6.97
2018-10-11T13:25:09.758Z,7.43
2018-10-11T13:27:38.110Z,7.20
2018-10-11T13:30:06.356Z,7.37
2018-10-11T13:32:34.571Z,6.80
2018-10-11T13:35:02.930Z,7.40
2018-10-11T13:37:31.226Z,7.97
2018-10-11T13:39:59.419Z,8.50
2018-10-11T13:42:27.629Z,7.97
2018-10-11T13:44:55.984Z,8.10
2018-10-11T13:47:24.352Z,8.77
2018-10-11T13:49:52.455Z,9.47
2018-10-11T13:52:22.512Z,10.20
2018-10-11T13:54:49.217Z,11.47
2018-10-11T13:57:17.472Z,12.50
2018-10-11T13:59:45.711Z,10.30
2018-10-11T14:02:13.977Z,9.63
2018-10-11T14:04:42.287Z,9.30
2018-10-11T14:07:10.684Z,9.30
2018-10-11T14:09:39.136Z,8.10
2018-10-11T14:12:07.414Z,9.07
2018-10-11T14:14:37.621Z,9.27
2018-10-11T14:17:05.803Z,8.90
2018-10-11T14:19:33.958Z,8.70
2018-10-11T14:22:02.231Z,9.20
2018-10-11T14:24:30.871Z,9.30
2018-10-11T14:26:59.415Z,9.37
2018-10-11T14:29:27.557Z,10.30
2018-10-11T14:31:56.009Z,8.73
2018-10-11T14:34:27.221Z,9.23
2018-10-11T14:36:55.829Z,9.27
2018-10-11T14:39:25.310Z,8.90
2018-10-11T14:41:53.547Z,9.40
2018-10-11T14:44:21.780Z,7.73
2018-10-11T14:46:50.057Z,9.27
2018-10-11T14:49:18.285Z,10.47
2018-10-11T14:51:48.723Z,10.57
2018-10-11T14:54:14.819Z,9.27
2018-10-11T14:56:43.151Z,12.37
2018-10-11T14:59:13.199Z,9.57
2018-10-11T15:01:42.807Z,8.83
2018-10-11T15:04:16.407Z,9.53
2018-10-11T15:06:49.102Z,9.00
2018-10-11T15:09:21.879Z,8.47
2018-10-11T15:11:51.304Z,8.93
2018-10-11T15:14:21.809Z,8.30
2018-10-11T15:16:53.869Z,8.93
2018-10-11T15:19:24.714Z,8.13
2018-10-11T15:21:55.202Z,10.30
2018-10-11T15:24:25.328Z,9.00
2018-10-11T15:26:56.402Z,9.20
2018-10-11T15:29:26.193Z,8.80
2018-10-11T15:31:55.410Z,10.43
2018-10-11T15:34:26.422Z,12.67
2018-10-11T15:36:59.101Z,11.23
2018-10-11T15:39:29.337Z,8.83
2018-10-11T15:42:01.198Z,9.17
2018-10-11T15:44:31.673Z,9.33
2018-10-11T15:47:01.965Z,9.40
2018-10-11T15:49:32.896Z,8.70
2018-10-11T15:52:03.768Z,8.80
2018-10-11T15:54:33.930Z,12.13
2018-10-11T15:57:03.641Z,9.87
2018-10-11T15:59:34.244Z,8.83
2018-10-11T16:02:04.416Z,8.80
2018-10-11T16:04:34.613Z,8.33
2018-10-11T16:07:06.991Z,9.30
2018-10-11T16:09:37.314Z,10.20
2018-10-11T16:12:07.353Z,10.23
2018-10-11T16:14:38.483Z,8.33
2018-10-11T16:17:09.304Z,9.27
2018-10-11T16:19:42.240Z,8.83
2018-10-11T16:22:12.436Z,9.10
2018-10-11T16:24:41.786Z,8.50
2018-10-11T16:27:14.432Z,9.83
2018-10-11T16:29:45.327Z,9.63
2018-10-11T16:32:14.888Z,9.90
2018-10-11T16:34:44.542Z,9.87
2018-10-11T16:37:15.184Z,10.70
2018-10-11T16:39:45.403Z,10.37
2018-10-11T16:42:17.848Z,10.67
2018-10-11T16:44:52.359Z,10.83
2018-10-11T16:47:22.646Z,9.90
2018-10-11T16:49:53.684Z,9.83
2018-10-11T16:52:24.251Z,9.33
2018-10-11T16:54:53.898Z,10.90
2018-10-11T16:57:23.624Z,10.30
2018-10-11T16:59:54.763Z,11.63
2018-10-11T17:02:24.948Z,11.57
2018-10-11T17:04:59.144Z,11.53
2018-10-11T17:07:28.907Z,11.03
2018-10-11T17:09:58.351Z,12.33
2018-10-11T17:12:30.065Z,11.10
2018-10-11T17:15:00.087Z,11.87
2018-10-11T17:17:32.269Z,11.50
2018-10-11T17:20:05.883Z,12.50
2018-10-11T17:22:36.689Z,13.73
2018-10-11T17:25:06.687Z,12.37
2018-10-11T17:27:37.573Z,12.03
2018-10-11T17:30:07.238Z,14.33
2018-10-11T17:32:37.673Z,14.10
2018-10-11T17:37:55.172Z,10.53
2018-10-11T17:40:23.652Z,11.13
2018-10-11T17:42:51.902Z,10.70
2018-10-11T17:45:20.561Z,10.60
2018-10-11T17:47:53.840Z,9.40
2018-10-11T17:50:24.686Z,10.63
2018-10-11T17:52:52.808Z,9.70
2018-10-11T17:55:22.462Z,10.40
2018-10-11T17:57:51.637Z,9.03
2018-10-11T18:00:22.864Z,9.80
2018-10-11T18:02:51.119Z,9.60
2018-10-11T18:05:24.626Z,10.13
2018-10-11T18:07:52.933Z,10.43
2018-10-11T18:10:21.117Z,10.00
2018-10-11T18:12:49.343Z,9.50
2018-10-11T18:15:17.491Z,11.30
2018-10-11T18:17:47.689Z,10.73
2018-10-11T18:20:23.413Z,10.00
2018-10-11T18:22:51.583Z,11.10
2018-10-11T18:25:26.001Z,10.87
2018-10-11T18:27:54.937Z,15.33
2018-10-11T18:30:23.096Z,13.83
2018-10-11T18:32:51.356Z,20.93
2018-10-11T18:35:19.631Z,15.37
2018-10-11T18:37:47.867Z,13.30
2018-10-11T18:40:16.209Z,13.17
2018-10-11T18:42:44.632Z,11.70
2018-10-11T18:45:12.787Z,12.67
2018-10-11T18:47:41.016Z,11.73
2018-10-11T18:50:09.244Z,11.60
2018-10-11T18:52:37.440Z,11.93
2018-10-11T18:55:05.671Z,12.57
2018-10-11T18:57:33.839Z,11.10
2018-10-11T19:00:02.156Z,12.03
2018-10-11T19:02:30.340Z,11.87
2018-10-11T19:04:58.509Z,11.20
2018-10-11T19:07:29.148Z,12.57
2018-10-11T19:09:57.406Z,11.90
2018-10-11T19:12:25.567Z,12.03
2018-10-11T19:14:53.966Z,13.60
2018-10-11T19:17:22.123Z,12.87
2018-10-11T19:19:50.980Z,12.80
2018-10-11T19:22:19.191Z,12.80
2018-10-11T19:24:47.363Z,13.13
2018-10-11T19:27:15.743Z,12.13
2018-10-11T19:29:43.939Z,13.40
2018-10-11T19:32:12.106Z,13.33
2018-10-11T19:34:42.870Z,12.57
2018-10-11T19:37:12.376Z,12.70
2018-10-11T19:39:40.590Z,12.77
2018-10-11T19:42:13.437Z,11.97
2018-10-11T19:44:41.590Z,13.53
2018-10-11T19:47:09.755Z,13.07
2018-10-11T19:49:37.915Z,13.43
2018-10-11T19:52:06.170Z,13.40
2018-10-11T19:54:34.627Z,14.27
2018-10-11T19:57:03.059Z,13.67
2018-10-11T19:59:31.555Z,13.03
2018-10-11T20:01:59.695Z,13.43
2018-10-11T20:04:27.969Z,13.00
2018-10-11T20:06:56.155Z,12.73
2018-10-11T20:09:24.602Z,13.40
2018-10-11T20:11:52.774Z,13.37
2018-10-11T20:14:20.962Z,12.80
2018-10-11T20:16:49.131Z,14.13
2018-10-11T20:19:17.295Z,14.10
2018-10-11T20:21:52.716Z,12.67
2018-10-11T20:24:22.073Z,12.67
2018-10-11T20:26:50.224Z,13.17
2018-10-11T20:29:18.391Z,13.00
2018-10-11T20:31:46.588Z,13.77
2018-10-11T20:34:14.833Z,13.27
2018-10-11T20:36:42.983Z,13.30
2018-10-11T20:39:11.252Z,13.87
2018-10-11T20:41:39.471Z,13.27
2018-10-11T20:44:07.685Z,14.03
2018-10-11T20:46:35.836Z,13.87
2018-10-11T20:49:04.000Z,13.87
2018-10-11T20:51:32.281Z,13.10
2018-10-11T20:54:00.338Z,13.53
2018-10-11T20:56:28.815Z,13.23
2018-10-11T20:58:56.960Z,13.77
2018-10-11T21:01:25.211Z,14.47
2018-10-11T21:03:53.371Z,12.10
2018-10-11T21:06:21.610Z,14.17
2018-10-11T21:08:49.792Z,13.93
2018-10-11T21:11:17.962Z,13.50
2018-10-11T21:13:46.143Z,13.03
2018-10-11T21:16:14.291Z,13.40
2018-10-11T21:18:42.500Z,12.77
2018-10-11T21:21:10.711Z,13.73
2018-10-11T21:23:38.855Z,13.63
2018-10-11T21:26:07.214Z,14.07
2018-10-11T21:28:35.406Z,12.27
2018-10-11T21:31:03.688Z,13.60
2018-10-11T21:33:32.419Z,12.83
2018-10-11T21:36:00.605Z,13.73
2018-10-11T21:38:28.766Z,12.83
2018-10-11T21:40:57.019Z,14.67
2018-10-11T21:43:25.737Z,13.63
2018-10-11T21:45:53.908Z,13.57
2018-10-11T21:48:22.084Z,13.93
2018-10-11T21:50:50.333Z,13.57
2018-10-11T21:53:19.956Z,13.67
2018-10-11T21:55:48.091Z,13.13
2018-10-11T21:58:16.595Z,13.43
2018-10-11T22:00:50.095Z,14.97
2018-10-11T22:03:18.302Z,15.20
2018-10-11T22:05:46.464Z,14.27
2018-10-11T22:08:15.639Z,13.33
2018-10-11T22:10:45.856Z,14.17
2018-10-11T22:13:14.008Z,13.87
2018-10-11T22:15:42.173Z,13.63
2018-10-11T22:18:10.342Z,13.23
2018-10-11T22:20:38.621Z,13.27
2018-10-11T22:23:06.895Z,13.03
2018-10-11T22:25:35.171Z,14.53
2018-10-11T22:28:04.580Z,15.07
2018-10-11T22:30:32.783Z,13.07
2018-10-11T22:33:00.943Z,13.00
2018-10-11T22:35:29.133Z,13.90
2018-10-11T22:38:01.603Z,14.50
2018-10-11T22:40:29.995Z,14.60
2018-10-11T22:42:58.575Z,15.50
2018-10-11T22:45:27.259Z,15.23
2018-10-11T22:47:56.131Z,14.67
2018-10-11T22:50:25.347Z,16.27
2018-10-11T22:52:53.595Z,14.37
2018-10-11T22:55:21.766Z,14.47
2018-10-11T22:57:49.943Z,13.80
2018-10-11T23:00:18.118Z,14.83
2018-10-11T23:02:46.276Z,14.20
2018-10-11T23:05:14.499Z,14.50
2018-10-11T23:07:42.703Z,13.63
2018-10-11T23:10:10.850Z,13.57
2018-10-11T23:12:39.031Z,14.20
2018-10-11T23:15:07.308Z,13.97
2018-10-11T23:17:35.364Z,13.03
2018-10-11T23:20:03.583Z,13.80
2018-10-11T23:22:31.778Z,14.67
2018-10-11T23:24:59.912Z,13.80
2018-10-11T23:27:28.075Z,14.07
2018-10-11T23:29:56.333Z,14.37
2018-10-11T23:32:24.507Z,16.47
2018-10-11T23:34:52.691Z,16.27
2018-10-11T23:37:20.838Z,16.40
2018-10-11T23:39:48.993Z,15.03
2018-10-11T23:42:17.182Z,15.17
2018-10-11T23:44:47.219Z,15.27
2018-10-11T23:47:15.383Z,14.80
2018-10-11T23:49:43.574Z,14.43
2018-10-11T23:52:11.754Z,15.90
2018-10-11T23:54:39.935Z,13.90
2018-10-11T23:57:08.214Z,13.57
2018-10-11T23:59:36.386Z,13.50
